sensor_id;sensor_type;location;lat;lon;timestamp;P1;durP1;ratioP1;P2;durP2;ratioP2
26391;SDS011;14572;43.120;1.178;2022-08-21T00:02:13;3.10;;;0.90;;
26391;SDS011;14572;43.120;1.178;2022-08-21T00:04:41;3.90;;;0.95;;
26391;SDS011;14572;43.120;1.178;2022-08-21T00:07:08;1.83;;;0.98;;
26391;SDS011;14572;43.120;1.178;2022-08-21T00:09:35;3.03;;;0.98;;
26391;SDS011;14572;43.120;1.178;2022-08-21T00:12:03;1.02;;;0.90;;
26391;SDS011;14572;43.120;1.178;2022-08-21T00:14:30;1.10;;;1.00;;
26391;SDS011;14572;43.120;1.178;2022-08-21T00:16:59;0.98;;;0.80;;
26391;SDS011;14572;43.120;1.178;2022-08-21T00:19:26;0.90;;;0.75;;
26391;SDS011;14572;43.120;1.178;2022-08-21T00:21:54;2.67;;;0.88;;
26391;SDS011;14572;43.120;1.178;2022-08-21T00:24:22;1.58;;;1.00;;
26391;SDS011;14572;43.120;1.178;2022-08-21T00:26:49;3.90;;;1.30;;
26391;SDS011;14572;43.120;1.178;2022-08-21T00:29:16;2.40;;;0.80;;
26391;SDS011;14572;43.120;1.178;2022-08-21T00:31:44;1.95;;;0.70;;
26391;SDS011;14572;43.120;1.178;2022-08-21T00:34:12;6.03;;;0.80;;
26391;SDS011;14572;43.120;1.178;2022-08-21T00:36:39;6.05;;;1.65;;
26391;SDS011;14572;43.120;1.178;2022-08-21T00:39:07;0.90;;;0.90;;
26391;SDS011;14572;43.120;1.178;2022-08-21T00:41:35;1.65;;;0.70;;
26391;SDS011;14572;43.120;1.178;2022-08-21T00:44:03;0.82;;;0.80;;
26391;SDS011;14572;43.120;1.178;2022-08-21T00:46:30;3.15;;;0.80;;
26391;SDS011;14572;43.120;1.178;2022-08-21T00:48:57;1.63;;;0.80;;
26391;SDS011;14572;43.120;1.178;2022-08-21T00:51:27;3.20;;;1.00;;
26391;SDS011;14572;43.120;1.178;2022-08-21T00:53:58;1.27;;;0.90;;
26391;SDS011;14572;43.120;1.178;2022-08-21T00:56:26;1.30;;;0.73;;
26391;SDS011;14572;43.120;1.178;2022-08-21T00:58:54;2.08;;;0.98;;
26391;SDS011;14572;43.120;1.178;2022-08-21T01:01:22;1.65;;;0.98;;
26391;SDS011;14572;43.120;1.178;2022-08-21T01:03:49;4.78;;;0.90;;
26391;SDS011;14572;43.120;1.178;2022-08-21T01:06:16;5.25;;;1.05;;
26391;SDS011;14572;43.120;1.178;2022-08-21T01:08:45;1.00;;;0.90;;
26391;SDS011;14572;43.120;1.178;2022-08-21T01:11:13;0.90;;;0.80;;
26391;SDS011;14572;43.120;1.178;2022-08-21T01:13:40;2.15;;;0.80;;
26391;SDS011;14572;43.120;1.178;2022-08-21T01:16:11;7.80;;;1.00;;
26391;SDS011;14572;43.120;1.178;2022-08-21T01:18:41;4.00;;;0.80;;
26391;SDS011;14572;43.120;1.178;2022-08-21T01:21:10;4.80;;;1.17;;
26391;SDS011;14572;43.120;1.178;2022-08-21T01:23:41;1.67;;;1.05;;
26391;SDS011;14572;43.120;1.178;2022-08-21T01:26:11;3.72;;;1.00;;
26391;SDS011;14572;43.120;1.178;2022-08-21T01:28:40;1.60;;;0.80;;
26391;SDS011;14572;43.120;1.178;2022-08-21T01:31:09;0.88;;;0.80;;
26391;SDS011;14572;43.120;1.178;2022-08-21T01:33:38;1.10;;;0.70;;
26391;SDS011;14572;43.120;1.178;2022-08-21T01:36:06;2.40;;;1.08;;
26391;SDS011;14572;43.120;1.178;2022-08-21T01:38:34;2.88;;;1.02;;
26391;SDS011;14572;43.120;1.178;2022-08-21T01:41:02;2.25;;;0.90;;
26391;SDS011;14572;43.120;1.178;2022-08-21T01:43:29;3.67;;;1.02;;
26391;SDS011;14572;43.120;1.178;2022-08-21T01:45:56;1.33;;;0.85;;
26391;SDS011;14572;43.120;1.178;2022-08-21T01:48:23;1.05;;;0.90;;
26391;SDS011;14572;43.120;1.178;2022-08-21T01:50:50;1.70;;;0.68;;
26391;SDS011;14572;43.120;1.178;2022-08-21T01:53:17;4.13;;;1.10;;
26391;SDS011;14572;43.120;1.178;2022-08-21T01:55:46;1.00;;;0.90;;
26391;SDS011;14572;43.120;1.178;2022-08-21T01:58:13;1.40;;;0.77;;
26391;SDS011;14572;43.120;1.178;2022-08-21T02:00:40;1.92;;;0.90;;
26391;SDS011;14572;43.120;1.178;2022-08-21T02:03:08;2.97;;;1.10;;
26391;SDS011;14572;43.120;1.178;2022-08-21T02:05:35;1.48;;;1.00;;
26391;SDS011;14572;43.120;1.178;2022-08-21T02:08:03;1.60;;;0.73;;
26391;SDS011;14572;43.120;1.178;2022-08-21T02:10:30;4.88;;;1.10;;
26391;SDS011;14572;43.120;1.178;2022-08-21T02:13:00;5.50;;;0.90;;
26391;SDS011;14572;43.120;1.178;2022-08-21T02:15:27;3.22;;;1.20;;
26391;SDS011;14572;43.120;1.178;2022-08-21T02:17:55;1.75;;;0.85;;
26391;SDS011;14572;43.120;1.178;2022-08-21T02:20:24;2.85;;;0.90;;
26391;SDS011;14572;43.120;1.178;2022-08-21T02:22:53;3.10;;;1.00;;
26391;SDS011;14572;43.120;1.178;2022-08-21T02:25:20;1.38;;;0.80;;
26391;SDS011;14572;43.120;1.178;2022-08-21T02:27:48;1.70;;;0.60;;
26391;SDS011;14572;43.120;1.178;2022-08-21T02:30:19;3.30;;;1.17;;
26391;SDS011;14572;43.120;1.178;2022-08-21T02:32:50;1.75;;;1.05;;
26391;SDS011;14572;43.120;1.178;2022-08-21T02:35:17;1.75;;;1.10;;
26391;SDS011;14572;43.120;1.178;2022-08-21T02:37:46;2.28;;;0.88;;
26391;SDS011;14572;43.120;1.178;2022-08-21T02:40:15;0.90;;;0.90;;
26391;SDS011;14572;43.120;1.178;2022-08-21T02:42:45;1.15;;;0.98;;
26391;SDS011;14572;43.120;1.178;2022-08-21T02:45:13;1.55;;;1.27;;
26391;SDS011;14572;43.120;1.178;2022-08-21T02:47:42;3.33;;;1.02;;
26391;SDS011;14572;43.120;1.178;2022-08-21T02:50:16;3.47;;;1.15;;
26391;SDS011;14572;43.120;1.178;2022-08-21T02:52:44;1.65;;;0.82;;
26391;SDS011;14572;43.120;1.178;2022-08-21T02:55:11;2.55;;;0.75;;
26391;SDS011;14572;43.120;1.178;2022-08-21T02:57:38;2.33;;;1.00;;
26391;SDS011;14572;43.120;1.178;2022-08-21T03:00:06;1.92;;;0.88;;
26391;SDS011;14572;43.120;1.178;2022-08-21T03:02:35;0.90;;;0.90;;
26391;SDS011;14572;43.120;1.178;2022-08-21T03:05:05;1.02;;;0.90;;
26391;SDS011;14572;43.120;1.178;2022-08-21T03:07:32;3.35;;;0.98;;
26391;SDS011;14572;43.120;1.178;2022-08-21T03:10:00;2.47;;;0.90;;
26391;SDS011;14572;43.120;1.178;2022-08-21T03:12:29;3.60;;;1.00;;
26391;SDS011;14572;43.120;1.178;2022-08-21T03:14:56;2.10;;;0.98;;
26391;SDS011;14572;43.120;1.178;2022-08-21T03:17:23;2.60;;;0.82;;
26391;SDS011;14572;43.120;1.178;2022-08-21T03:19:50;2.20;;;1.00;;
26391;SDS011;14572;43.120;1.178;2022-08-21T03:22:19;2.67;;;0.77;;
26391;SDS011;14572;43.120;1.178;2022-08-21T03:24:46;3.22;;;1.00;;
26391;SDS011;14572;43.120;1.178;2022-08-21T03:27:13;1.25;;;0.60;;
26391;SDS011;14572;43.120;1.178;2022-08-21T03:29:40;1.00;;;0.73;;
26391;SDS011;14572;43.120;1.178;2022-08-21T03:32:07;5.00;;;0.98;;
26391;SDS011;14572;43.120;1.178;2022-08-21T03:34:35;1.15;;;0.90;;
26391;SDS011;14572;43.120;1.178;2022-08-21T03:37:02;4.20;;;1.00;;
26391;SDS011;14572;43.120;1.178;2022-08-21T03:39:31;2.42;;;0.95;;
26391;SDS011;14572;43.120;1.178;2022-08-21T03:41:58;1.17;;;0.90;;
26391;SDS011;14572;43.120;1.178;2022-08-21T03:44:26;1.48;;;1.00;;
26391;SDS011;14572;43.120;1.178;2022-08-21T03:46:54;2.75;;;1.10;;
26391;SDS011;14572;43.120;1.178;2022-08-21T03:49:21;1.55;;;0.80;;
26391;SDS011;14572;43.120;1.178;2022-08-21T03:51:48;2.28;;;0.82;;
26391;SDS011;14572;43.120;1.178;2022-08-21T03:54:15;2.50;;;0.90;;
26391;SDS011;14572;43.120;1.178;2022-08-21T03:56:44;1.92;;;1.00;;
26391;SDS011;14572;43.120;1.178;2022-08-21T03:59:11;2.47;;;0.90;;
26391;SDS011;14572;43.120;1.178;2022-08-21T04:01:38;5.38;;;1.08;;
26391;SDS011;14572;43.120;1.178;2022-08-21T04:04:06;1.20;;;1.10;;
26391;SDS011;14572;43.120;1.178;2022-08-21T04:06:33;2.30;;;1.00;;
26391;SDS011;14572;43.120;1.178;2022-08-21T04:09:00;0.80;;;0.80;;
26391;SDS011;14572;43.120;1.178;2022-08-21T04:11:27;3.80;;;1.00;;
26391;SDS011;14572;43.120;1.178;2022-08-21T04:13:55;2.70;;;1.48;;
26391;SDS011;14572;43.120;1.178;2022-08-21T04:16:22;1.65;;;0.80;;
26391;SDS011;14572;43.120;1.178;2022-08-21T04:18:49;2.58;;;1.30;;
26391;SDS011;14572;43.120;1.178;2022-08-21T04:21:16;3.30;;;1.00;;
26391;SDS011;14572;43.120;1.178;2022-08-21T04:23:43;3.40;;;0.82;;
26391;SDS011;14572;43.120;1.178;2022-08-21T04:26:10;1.80;;;0.80;;
26391;SDS011;14572;43.120;1.178;2022-08-21T04:28:37;1.63;;;0.80;;
26391;SDS011;14572;43.120;1.178;2022-08-21T04:31:06;1.58;;;1.17;;
26391;SDS011;14572;43.120;1.178;2022-08-21T04:33:34;2.47;;;1.35;;
26391;SDS011;14572;43.120;1.178;2022-08-21T04:36:01;1.38;;;0.80;;
26391;SDS011;14572;43.120;1.178;2022-08-21T04:38:29;2.80;;;0.80;;
26391;SDS011;14572;43.120;1.178;2022-08-21T04:40:57;2.53;;;1.05;;
26391;SDS011;14572;43.120;1.178;2022-08-21T04:43:24;0.88;;;0.85;;
26391;SDS011;14572;43.120;1.178;2022-08-21T04:45:51;1.65;;;0.90;;
26391;SDS011;14572;43.120;1.178;2022-08-21T04:48:21;1.23;;;0.85;;
26391;SDS011;14572;43.120;1.178;2022-08-21T04:50:51;1.67;;;0.90;;
26391;SDS011;14572;43.120;1.178;2022-08-21T04:53:20;2.25;;;0.90;;
26391;SDS011;14572;43.120;1.178;2022-08-21T04:55:49;0.98;;;0.90;;
26391;SDS011;14572;43.120;1.178;2022-08-21T04:58:18;2.00;;;1.27;;
26391;SDS011;14572;43.120;1.178;2022-08-21T05:00:45;2.00;;;1.17;;
26391;SDS011;14572;43.120;1.178;2022-08-21T05:03:13;2.28;;;0.90;;
26391;SDS011;14572;43.120;1.178;2022-08-21T05:05:42;1.55;;;0.90;;
26391;SDS011;14572;43.120;1.178;2022-08-21T05:08:11;5.07;;;1.55;;
26391;SDS011;14572;43.120;1.178;2022-08-21T05:10:39;1.10;;;0.90;;
26391;SDS011;14572;43.120;1.178;2022-08-21T05:13:08;1.00;;;0.90;;
26391;SDS011;14572;43.120;1.178;2022-08-21T05:15:35;1.35;;;0.95;;
26391;SDS011;14572;43.120;1.178;2022-08-21T05:18:02;1.27;;;1.13;;
26391;SDS011;14572;43.120;1.178;2022-08-21T05:20:29;6.03;;;1.08;;
26391;SDS011;14572;43.120;1.178;2022-08-21T05:23:01;1.75;;;1.10;;
26391;SDS011;14572;43.120;1.178;2022-08-21T05:25:33;3.00;;;1.88;;
26391;SDS011;14572;43.120;1.178;2022-08-21T05:28:00;2.42;;;1.15;;
26391;SDS011;14572;43.120;1.178;2022-08-21T05:30:27;3.33;;;1.05;;
26391;SDS011;14572;43.120;1.178;2022-08-21T05:32:55;3.08;;;1.40;;
26391;SDS011;14572;43.120;1.178;2022-08-21T05:35:23;4.75;;;1.15;;
26391;SDS011;14572;43.120;1.178;2022-08-21T05:37:50;2.35;;;1.27;;
26391;SDS011;14572;43.120;1.178;2022-08-21T05:40:19;5.22;;;1.00;;
26391;SDS011;14572;43.120;1.178;2022-08-21T05:42:46;2.13;;;1.20;;
26391;SDS011;14572;43.120;1.178;2022-08-21T05:45:13;1.95;;;1.38;;
26391;SDS011;14572;43.120;1.178;2022-08-21T05:47:40;3.47;;;1.33;;
26391;SDS011;14572;43.120;1.178;2022-08-21T05:50:07;2.25;;;1.40;;
26391;SDS011;14572;43.120;1.178;2022-08-21T05:52:41;1.30;;;1.20;;
26391;SDS011;14572;43.120;1.178;2022-08-21T05:55:08;3.67;;;2.13;;
26391;SDS011;14572;43.120;1.178;2022-08-21T05:57:36;1.10;;;1.00;;
26391;SDS011;14572;43.120;1.178;2022-08-21T06:00:06;3.40;;;1.20;;
26391;SDS011;14572;43.120;1.178;2022-08-21T06:02:35;1.33;;;1.10;;
26391;SDS011;14572;43.120;1.178;2022-08-21T06:05:02;1.52;;;1.15;;
26391;SDS011;14572;43.120;1.178;2022-08-21T06:07:30;3.28;;;1.73;;
26391;SDS011;14572;43.120;1.178;2022-08-21T06:09:56;2.70;;;1.02;;
26391;SDS011;14572;43.120;1.178;2022-08-21T06:12:23;1.77;;;1.10;;
26391;SDS011;14572;43.120;1.178;2022-08-21T06:14:52;1.20;;;1.10;;
26391;SDS011;14572;43.120;1.178;2022-08-21T06:17:19;2.30;;;1.40;;
26391;SDS011;14572;43.120;1.178;2022-08-21T06:19:50;2.13;;;1.25;;
26391;SDS011;14572;43.120;1.178;2022-08-21T06:22:17;3.22;;;1.30;;
26391;SDS011;14572;43.120;1.178;2022-08-21T06:24:45;1.73;;;1.58;;
26391;SDS011;14572;43.120;1.178;2022-08-21T06:27:12;2.78;;;1.40;;
26391;SDS011;14572;43.120;1.178;2022-08-21T06:29:40;1.77;;;1.40;;
26391;SDS011;14572;43.120;1.178;2022-08-21T06:32:09;2.13;;;1.48;;
26391;SDS011;14572;43.120;1.178;2022-08-21T06:34:37;3.05;;;1.35;;
26391;SDS011;14572;43.120;1.178;2022-08-21T06:37:04;2.33;;;1.52;;
26391;SDS011;14572;43.120;1.178;2022-08-21T06:39:31;2.97;;;1.67;;
26391;SDS011;14572;43.120;1.178;2022-08-21T06:41:58;5.68;;;1.70;;
26391;SDS011;14572;43.120;1.178;2022-08-21T06:44:26;3.13;;;1.50;;
26391;SDS011;14572;43.120;1.178;2022-08-21T06:46:53;2.25;;;1.42;;
26391;SDS011;14572;43.120;1.178;2022-08-21T06:49:21;3.00;;;1.65;;
26391;SDS011;14572;43.120;1.178;2022-08-21T06:51:48;2.40;;;1.55;;
26391;SDS011;14572;43.120;1.178;2022-08-21T06:54:16;2.95;;;1.50;;
26391;SDS011;14572;43.120;1.178;2022-08-21T06:56:43;2.67;;;1.90;;
26391;SDS011;14572;43.120;1.178;2022-08-21T06:59:10;3.08;;;1.48;;
26391;SDS011;14572;43.120;1.178;2022-08-21T07:01:37;2.80;;;1.60;;
26391;SDS011;14572;43.120;1.178;2022-08-21T07:04:04;3.40;;;1.50;;
26391;SDS011;14572;43.120;1.178;2022-08-21T07:06:32;2.03;;;1.60;;
26391;SDS011;14572;43.120;1.178;2022-08-21T07:09:00;2.15;;;1.35;;
26391;SDS011;14572;43.120;1.178;2022-08-21T07:11:27;2.65;;;1.40;;
26391;SDS011;14572;43.120;1.178;2022-08-21T07:13:55;6.65;;;1.70;;
26391;SDS011;14572;43.120;1.178;2022-08-21T07:16:22;3.65;;;1.75;;
26391;SDS011;14572;43.120;1.178;2022-08-21T07:18:50;6.60;;;2.90;;
26391;SDS011;14572;43.120;1.178;2022-08-21T07:21:17;3.67;;;2.08;;
26391;SDS011;14572;43.120;1.178;2022-08-21T07:23:47;5.55;;;2.55;;
26391;SDS011;14572;43.120;1.178;2022-08-21T07:26:15;7.80;;;2.55;;
26391;SDS011;14572;43.120;1.178;2022-08-21T07:28:47;5.00;;;2.53;;
26391;SDS011;14572;43.120;1.178;2022-08-21T07:31:15;6.68;;;2.88;;
26391;SDS011;14572;43.120;1.178;2022-08-21T07:33:43;5.18;;;2.58;;
26391;SDS011;14572;43.120;1.178;2022-08-21T07:36:11;4.97;;;2.90;;
26391;SDS011;14572;43.120;1.178;2022-08-21T07:38:38;5.07;;;2.53;;
26391;SDS011;14572;43.120;1.178;2022-08-21T07:41:10;6.50;;;3.03;;
26391;SDS011;14572;43.120;1.178;2022-08-21T07:43:39;4.30;;;2.45;;
26391;SDS011;14572;43.120;1.178;2022-08-21T07:46:06;5.85;;;2.40;;
26391;SDS011;14572;43.120;1.178;2022-08-21T07:48:33;3.50;;;1.90;;
26391;SDS011;14572;43.120;1.178;2022-08-21T07:51:01;6.80;;;2.78;;
26391;SDS011;14572;43.120;1.178;2022-08-21T07:53:31;6.57;;;2.33;;
26391;SDS011;14572;43.120;1.178;2022-08-21T07:55:58;4.63;;;2.22;;
26391;SDS011;14572;43.120;1.178;2022-08-21T07:58:27;4.40;;;1.92;;
26391;SDS011;14572;43.120;1.178;2022-08-21T08:00:54;3.90;;;2.00;;
26391;SDS011;14572;43.120;1.178;2022-08-21T08:03:21;4.82;;;1.67;;
26391;SDS011;14572;43.120;1.178;2022-08-21T08:05:48;4.63;;;2.20;;
26391;SDS011;14572;43.120;1.178;2022-08-21T08:08:15;5.25;;;2.28;;
26391;SDS011;14572;43.120;1.178;2022-08-21T08:10:42;4.30;;;1.98;;
26391;SDS011;14572;43.120;1.178;2022-08-21T08:13:10;4.25;;;1.52;;
26391;SDS011;14572;43.120;1.178;2022-08-21T08:15:38;2.53;;;1.83;;
26391;SDS011;14572;43.120;1.178;2022-08-21T08:18:05;2.90;;;1.60;;
26391;SDS011;14572;43.120;1.178;2022-08-21T08:20:32;2.70;;;1.60;;
26391;SDS011;14572;43.120;1.178;2022-08-21T08:22:59;2.40;;;1.63;;
26391;SDS011;14572;43.120;1.178;2022-08-21T08:25:27;2.53;;;1.63;;
26391;SDS011;14572;43.120;1.178;2022-08-21T08:27:54;3.95;;;2.10;;
26391;SDS011;14572;43.120;1.178;2022-08-21T08:30:22;2.42;;;1.50;;
26391;SDS011;14572;43.120;1.178;2022-08-21T08:32:50;2.70;;;1.73;;
26391;SDS011;14572;43.120;1.178;2022-08-21T08:35:18;2.75;;;1.40;;
26391;SDS011;14572;43.120;1.178;2022-08-21T08:37:45;2.08;;;1.40;;
26391;SDS011;14572;43.120;1.178;2022-08-21T08:40:13;2.15;;;1.33;;
26391;SDS011;14572;43.120;1.178;2022-08-21T08:42:41;4.40;;;1.30;;
26391;SDS011;14572;43.120;1.178;2022-08-21T08:45:09;3.55;;;1.30;;
26391;SDS011;14572;43.120;1.178;2022-08-21T08:47:40;2.53;;;1.58;;
26391;SDS011;14572;43.120;1.178;2022-08-21T08:50:13;2.85;;;1.50;;
26391;SDS011;14572;43.120;1.178;2022-08-21T08:52:46;2.85;;;1.30;;
26391;SDS011;14572;43.120;1.178;2022-08-21T08:55:16;1.73;;;1.23;;
26391;SDS011;14572;43.120;1.178;2022-08-21T08:57:46;1.67;;;1.50;;
26391;SDS011;14572;43.120;1.178;2022-08-21T09:00:16;2.53;;;1.27;;
26391;SDS011;14572;43.120;1.178;2022-08-21T09:02:45;3.42;;;1.60;;
26391;SDS011;14572;43.120;1.178;2022-08-21T09:05:19;2.72;;;1.45;;
26391;SDS011;14572;43.120;1.178;2022-08-21T09:07:52;2.83;;;1.52;;
26391;SDS011;14572;43.120;1.178;2022-08-21T09:10:29;3.72;;;1.35;;
26391;SDS011;14572;43.120;1.178;2022-08-21T09:13:00;2.33;;;1.40;;
26391;SDS011;14572;43.120;1.178;2022-08-21T09:15:33;2.25;;;1.50;;
26391;SDS011;14572;43.120;1.178;2022-08-21T09:18:16;1.50;;;1.00;;
26391;SDS011;14572;43.120;1.178;2022-08-21T09:20:55;1.48;;;1.20;;
26391;SDS011;14572;43.120;1.178;2022-08-21T09:23:32;1.13;;;1.00;;
26391;SDS011;14572;43.120;1.178;2022-08-21T09:26:07;1.75;;;0.82;;
26391;SDS011;14572;43.120;1.178;2022-08-21T09:28:38;1.77;;;1.05;;
26391;SDS011;14572;43.120;1.178;2022-08-21T09:31:08;1.50;;;0.95;;
26391;SDS011;14572;43.120;1.178;2022-08-21T09:33:38;1.20;;;1.00;;
26391;SDS011;14572;43.120;1.178;2022-08-21T09:36:07;3.55;;;1.38;;
26391;SDS011;14572;43.120;1.178;2022-08-21T09:38:35;3.67;;;1.20;;
26391;SDS011;14572;43.120;1.178;2022-08-21T09:41:04;1.65;;;1.20;;
26391;SDS011;14572;43.120;1.178;2022-08-21T09:43:33;2.80;;;1.40;;
26391;SDS011;14572;43.120;1.178;2022-08-21T09:46:03;3.20;;;1.27;;
26391;SDS011;14572;43.120;1.178;2022-08-21T09:48:38;1.20;;;1.10;;
26391;SDS011;14572;43.120;1.178;2022-08-21T09:51:10;2.05;;;1.13;;
26391;SDS011;14572;43.120;1.178;2022-08-21T09:53:39;2.42;;;1.48;;
26391;SDS011;14572;43.120;1.178;2022-08-21T09:56:16;1.90;;;1.33;;
26391;SDS011;14572;43.120;1.178;2022-08-21T09:59:12;2.50;;;1.23;;
26391;SDS011;14572;43.120;1.178;2022-08-21T10:01:42;2.22;;;1.50;;
26391;SDS011;14572;43.120;1.178;2022-08-21T10:04:10;1.38;;;1.13;;
26391;SDS011;14572;43.120;1.178;2022-08-21T10:06:39;2.38;;;1.02;;
26391;SDS011;14572;43.120;1.178;2022-08-21T10:09:08;4.05;;;1.52;;
26391;SDS011;14572;43.120;1.178;2022-08-21T10:11:36;3.65;;;1.38;;
26391;SDS011;14572;43.120;1.178;2022-08-21T10:14:08;2.90;;;1.20;;
26391;SDS011;14572;43.120;1.178;2022-08-21T10:16:42;3.30;;;1.30;;
26391;SDS011;14572;43.120;1.178;2022-08-21T10:19:20;2.53;;;1.20;;
26391;SDS011;14572;43.120;1.178;2022-08-21T10:21:57;1.98;;;1.02;;
26391;SDS011;14572;43.120;1.178;2022-08-21T10:24:29;1.85;;;1.10;;
26391;SDS011;14572;43.120;1.178;2022-08-21T10:27:02;1.35;;;1.00;;
26391;SDS011;14572;43.120;1.178;2022-08-21T10:29:39;1.33;;;1.02;;
26391;SDS011;14572;43.120;1.178;2022-08-21T10:32:14;1.58;;;1.10;;
26391;SDS011;14572;43.120;1.178;2022-08-21T10:34:55;3.03;;;1.23;;
26391;SDS011;14572;43.120;1.178;2022-08-21T10:37:30;2.10;;;1.15;;
26391;SDS011;14572;43.120;1.178;2022-08-21T10:40:07;1.23;;;1.08;;
26391;SDS011;14572;43.120;1.178;2022-08-21T10:42:41;2.67;;;1.08;;
26391;SDS011;14572;43.120;1.178;2022-08-21T10:45:15;3.47;;;1.27;;
26391;SDS011;14572;43.120;1.178;2022-08-21T10:47:51;1.55;;;0.95;;
26391;SDS011;14572;43.120;1.178;2022-08-21T10:50:24;1.15;;;1.00;;
26391;SDS011;14572;43.120;1.178;2022-08-21T10:53:08;2.45;;;1.38;;
26391;SDS011;14572;43.120;1.178;2022-08-21T10:55:43;1.35;;;1.25;;
26391;SDS011;14572;43.120;1.178;2022-08-21T10:58:17;1.95;;;1.15;;
26391;SDS011;14572;43.120;1.178;2022-08-21T11:00:48;1.90;;;1.27;;
26391;SDS011;14572;43.120;1.178;2022-08-21T11:03:21;2.10;;;1.10;;
26391;SDS011;14572;43.120;1.178;2022-08-21T11:05:51;2.22;;;1.25;;
26391;SDS011;14572;43.120;1.178;2022-08-21T11:08:24;1.38;;;1.10;;
26391;SDS011;14572;43.120;1.178;2022-08-21T11:10:55;1.27;;;1.17;;
26391;SDS011;14572;43.120;1.178;2022-08-21T11:13:26;2.13;;;1.02;;
26391;SDS011;14572;43.120;1.178;2022-08-21T11:15:58;1.65;;;0.90;;
26391;SDS011;14572;43.120;1.178;2022-08-21T11:18:28;1.33;;;0.85;;
26391;SDS011;14572;43.120;1.178;2022-08-21T11:21:06;1.15;;;1.00;;
26391;SDS011;14572;43.120;1.178;2022-08-21T11:23:43;3.40;;;1.27;;
26391;SDS011;14572;43.120;1.178;2022-08-21T11:26:13;1.88;;;0.95;;
26391;SDS011;14572;43.120;1.178;2022-08-21T11:28:44;1.75;;;1.10;;
26391;SDS011;14572;43.120;1.178;2022-08-21T11:31:20;2.40;;;0.80;;
26391;SDS011;14572;43.120;1.178;2022-08-21T11:33:58;2.05;;;0.77;;
26391;SDS011;14572;43.120;1.178;2022-08-21T11:36:33;1.10;;;0.88;;
26391;SDS011;14572;43.120;1.178;2022-08-21T11:39:09;1.50;;;0.98;;
26391;SDS011;14572;43.120;1.178;2022-08-21T11:41:43;2.03;;;1.10;;
26391;SDS011;14572;43.120;1.178;2022-08-21T11:44:16;1.40;;;1.08;;
26391;SDS011;14572;43.120;1.178;2022-08-21T11:46:47;1.10;;;0.93;;
26391;SDS011;14572;43.120;1.178;2022-08-21T11:49:40;1.17;;;0.95;;
26391;SDS011;14572;43.120;1.178;2022-08-21T11:52:14;1.60;;;1.00;;
26391;SDS011;14572;43.120;1.178;2022-08-21T11:54:49;1.48;;;1.00;;
26391;SDS011;14572;43.120;1.178;2022-08-21T11:57:23;1.95;;;1.15;;
26391;SDS011;14572;43.120;1.178;2022-08-21T11:59:53;1.98;;;0.98;;
26391;SDS011;14572;43.120;1.178;2022-08-21T12:02:35;2.10;;;1.17;;
26391;SDS011;14572;43.120;1.178;2022-08-21T12:05:04;2.25;;;1.30;;
26391;SDS011;14572;43.120;1.178;2022-08-21T12:07:34;2.50;;;1.50;;
26391;SDS011;14572;43.120;1.178;2022-08-21T12:10:05;1.55;;;1.10;;
26391;SDS011;14572;43.120;1.178;2022-08-21T12:12:35;1.85;;;1.20;;
26391;SDS011;14572;43.120;1.178;2022-08-21T12:17:54;2.83;;;1.20;;
26391;SDS011;14572;43.120;1.178;2022-08-21T12:20:37;1.65;;;1.00;;
26391;SDS011;14572;43.120;1.178;2022-08-21T12:23:24;3.05;;;1.10;;
26391;SDS011;14572;43.120;1.178;2022-08-21T12:26:17;5.10;;;1.55;;
26391;SDS011;14572;43.120;1.178;2022-08-21T12:28:50;2.70;;;1.35;;
26391;SDS011;14572;43.120;1.178;2022-08-21T12:31:18;2.33;;;1.20;;
26391;SDS011;14572;43.120;1.178;2022-08-21T12:33:51;1.60;;;1.10;;
26391;SDS011;14572;43.120;1.178;2022-08-21T12:36:23;2.50;;;1.40;;
26391;SDS011;14572;43.120;1.178;2022-08-21T12:38:52;1.85;;;1.23;;
26391;SDS011;14572;43.120;1.178;2022-08-21T12:41:24;2.58;;;1.75;;
26391;SDS011;14572;43.120;1.178;2022-08-21T12:43:56;2.63;;;1.17;;
26391;SDS011;14572;43.120;1.178;2022-08-21T12:46:27;1.48;;;1.15;;
26391;SDS011;14572;43.120;1.178;2022-08-21T12:48:58;2.25;;;1.40;;
26391;SDS011;14572;43.120;1.178;2022-08-21T12:51:29;1.48;;;1.23;;
26391;SDS011;14572;43.120;1.178;2022-08-21T12:53:59;1.35;;;1.20;;
26391;SDS011;14572;43.120;1.178;2022-08-21T12:56:28;1.42;;;0.90;;
26391;SDS011;14572;43.120;1.178;2022-08-21T12:58:59;7.70;;;1.65;;
26391;SDS011;14572;43.120;1.178;2022-08-21T13:01:30;2.28;;;1.40;;
26391;SDS011;14572;43.120;1.178;2022-08-21T13:04:01;1.52;;;1.30;;
26391;SDS011;14572;43.120;1.178;2022-08-21T13:06:30;3.42;;;1.20;;
26391;SDS011;14572;43.120;1.178;2022-08-21T13:09:04;1.38;;;1.17;;
26391;SDS011;14572;43.120;1.178;2022-08-21T13:11:34;1.65;;;1.20;;
26391;SDS011;14572;43.120;1.178;2022-08-21T13:14:02;1.35;;;1.05;;
26391;SDS011;14572;43.120;1.178;2022-08-21T13:16:30;1.60;;;0.95;;
26391;SDS011;14572;43.120;1.178;2022-08-21T13:18:58;2.47;;;1.42;;
26391;SDS011;14572;43.120;1.178;2022-08-21T13:21:28;2.20;;;1.15;;
26391;SDS011;14572;43.120;1.178;2022-08-21T13:26:42;1.83;;;1.27;;
26391;SDS011;14572;43.120;1.178;2022-08-21T13:29:09;1.48;;;1.17;;
26391;SDS011;14572;43.120;1.178;2022-08-21T13:31:37;4.78;;;1.67;;
26391;SDS011;14572;43.120;1.178;2022-08-21T13:34:07;2.50;;;1.70;;
26391;SDS011;14572;43.120;1.178;2022-08-21T13:36:36;1.48;;;1.38;;
26391;SDS011;14572;43.120;1.178;2022-08-21T13:39:07;2.47;;;1.08;;
26391;SDS011;14572;43.120;1.178;2022-08-21T13:41:37;1.33;;;1.23;;
26391;SDS011;14572;43.120;1.178;2022-08-21T13:44:15;1.33;;;1.13;;
26391;SDS011;14572;43.120;1.178;2022-08-21T13:46:43;1.75;;;1.20;;
26391;SDS011;14572;43.120;1.178;2022-08-21T13:49:12;2.72;;;1.35;;
26391;SDS011;14572;43.120;1.178;2022-08-21T13:51:40;1.92;;;1.38;;
26391;SDS011;14572;43.120;1.178;2022-08-21T13:54:15;1.83;;;1.20;;
26391;SDS011;14572;43.120;1.178;2022-08-21T13:56:47;3.53;;;1.08;;
26391;SDS011;14572;43.120;1.178;2022-08-21T13:59:25;4.85;;;1.90;;
26391;SDS011;14572;43.120;1.178;2022-08-21T14:01:54;2.05;;;1.45;;
26391;SDS011;14572;43.120;1.178;2022-08-21T14:04:25;2.30;;;1.48;;
26391;SDS011;14572;43.120;1.178;2022-08-21T14:06:56;2.60;;;2.00;;
26391;SDS011;14572;43.120;1.178;2022-08-21T14:09:25;2.80;;;1.60;;
26391;SDS011;14572;43.120;1.178;2022-08-21T14:11:55;4.90;;;1.80;;
26391;SDS011;14572;43.120;1.178;2022-08-21T14:14:26;1.83;;;1.35;;
26391;SDS011;14572;43.120;1.178;2022-08-21T14:16:57;1.40;;;1.27;;
26391;SDS011;14572;43.120;1.178;2022-08-21T14:19:27;1.80;;;1.40;;
26391;SDS011;14572;43.120;1.178;2022-08-21T14:22:12;3.15;;;1.42;;
26391;SDS011;14572;43.120;1.178;2022-08-21T14:24:48;4.43;;;1.70;;
26391;SDS011;14572;43.120;1.178;2022-08-21T14:27:17;1.65;;;1.50;;
26391;SDS011;14572;43.120;1.178;2022-08-21T14:29:46;2.55;;;1.85;;
26391;SDS011;14572;43.120;1.178;2022-08-21T14:32:14;1.70;;;1.60;;
26391;SDS011;14572;43.120;1.178;2022-08-21T14:34:42;2.03;;;1.52;;
26391;SDS011;14572;43.120;1.178;2022-08-21T14:37:09;6.47;;;1.42;;
26391;SDS011;14572;43.120;1.178;2022-08-21T14:39:36;1.60;;;1.30;;
26391;SDS011;14572;43.120;1.178;2022-08-21T14:42:03;1.90;;;1.67;;
26391;SDS011;14572;43.120;1.178;2022-08-21T14:44:30;2.25;;;1.50;;
26391;SDS011;14572;43.120;1.178;2022-08-21T14:46:59;2.92;;;1.52;;
26391;SDS011;14572;43.120;1.178;2022-08-21T14:49:27;4.00;;;1.60;;
26391;SDS011;14572;43.120;1.178;2022-08-21T14:51:55;2.30;;;1.90;;
26391;SDS011;14572;43.120;1.178;2022-08-21T14:54:23;1.60;;;1.50;;
26391;SDS011;14572;43.120;1.178;2022-08-21T14:56:50;3.05;;;1.63;;
26391;SDS011;14572;43.120;1.178;2022-08-21T14:59:17;2.33;;;1.58;;
26391;SDS011;14572;43.120;1.178;2022-08-21T15:01:45;2.05;;;1.60;;
26391;SDS011;14572;43.120;1.178;2022-08-21T15:04:14;9.35;;;2.17;;
26391;SDS011;14572;43.120;1.178;2022-08-21T15:06:41;2.60;;;1.77;;
26391;SDS011;14572;43.120;1.178;2022-08-21T15:09:08;6.55;;;2.03;;